sensor_id;sensor_type;location;lat;lon;timestamp;pressure;altitude;pressure_sealevel;temperature;humidity
51229;BME280;37304;52.216;6.874;2023-04-20T00:04:56;101916.22;;;5.64;74.22
51229;BME280;37304;52.216;6.874;2023-04-20T00:09:56;101906.63;;;5.59;75.23
51229;BME280;37304;52.216;6.874;2023-04-20T00:14:59;101897.91;;;5.53;76.68
51229;BME280;37304;52.216;6.874;2023-04-20T00:19:59;101887.66;;;5.55;78.41
51229;BME280;37304;52.216;6.874;2023-04-20T00:25:01;101881.53;;;5.51;80.01
51229;BME280;37304;52.216;6.874;2023-04-20T00:30:01;101873.72;;;5.47;81.73
51229;BME280;37304;52.216;6.874;2023-04-20T00:35:01;101862.38;;;5.38;83.85
51229;BME280;37304;52.216;6.874;2023-04-20T00:40:02;101851.91;;;5.31;86.83
51229;BME280;37304;52.216;6.874;2023-04-20T00:45:03;101852.69;;;5.27;88.85
51229;BME280;37304;52.216;6.874;2023-04-20T00:50:04;101836.25;;;5.21;91.39
51229;BME280;37304;52.216;6.874;2023-04-20T00:55:09;101834.38;;;5.16;93.90
51229;BME280;37304;52.216;6.874;2023-04-20T01:00:10;101824.06;;;5.14;97.15
51229;BME280;37304;52.216;6.874;2023-04-20T01:05:11;101815.38;;;5.10;100.00
51229;BME280;37304;52.216;6.874;2023-04-20T01:10:14;101802.56;;;5.12;100.00
51229;BME280;37304;52.216;6.874;2023-04-20T01:15:14;101805.25;;;5.18;100.00
51229;BME280;37304;52.216;6.874;2023-04-20T01:20:15;101802.03;;;5.29;100.00
51229;BME280;37304;52.216;6.874;2023-04-20T01:25:16;101791.25;;;5.48;100.00
51229;BME280;37304;52.216;6.874;2023-04-20T01:30:17;101784.56;;;5.58;100.00
51229;BME280;37304;52.216;6.874;2023-04-20T01:35:17;101778.72;;;5.67;100.00
51229;BME280;37304;52.216;6.874;2023-04-20T01:40:18;101778.09;;;5.80;100.00
51229;BME280;37304;52.216;6.874;2023-04-20T01:45:18;101772.16;;;5.86;100.00
51229;BME280;37304;52.216;6.874;2023-04-20T01:50:19;101766.38;;;5.98;100.00
51229;BME280;37304;52.216;6.874;2023-04-20T01:55:19;101744.19;;;6.06;100.00
51229;BME280;37304;52.216;6.874;2023-04-20T02:00:20;101746.91;;;6.16;100.00
51229;BME280;37304;52.216;6.874;2023-04-20T02:05:20;101735.88;;;6.24;100.00
51229;BME280;37304;52.216;6.874;2023-04-20T02:10:20;101722.25;;;6.33;100.00
51229;BME280;37304;52.216;6.874;2023-04-20T02:15:21;101730.03;;;6.38;100.00
51229;BME280;37304;52.216;6.874;2023-04-20T02:20:22;101718.06;;;6.43;100.00
51229;BME280;37304;52.216;6.874;2023-04-20T02:25:26;101714.72;;;6.50;100.00
51229;BME280;37304;52.216;6.874;2023-04-20T02:30:26;101700.16;;;6.55;100.00
51229;BME280;37304;52.216;6.874;2023-04-20T02:35:27;101707.91;;;6.55;100.00
51229;BME280;37304;52.216;6.874;2023-04-20T02:40:27;101711.41;;;6.59;100.00
51229;BME280;37304;52.216;6.874;2023-04-20T02:45:27;101709.69;;;6.60;100.00
51229;BME280;37304;52.216;6.874;2023-04-20T02:50:29;101701.97;;;6.61;100.00
51229;BME280;37304;52.216;6.874;2023-04-20T02:55:30;101695.91;;;6.59;100.00
51229;BME280;37304;52.216;6.874;2023-04-20T03:00:30;101697.69;;;6.63;100.00
51229;BME280;37304;52.216;6.874;2023-04-20T03:05:31;101679.66;;;6.66;100.00
51229;BME280;37304;52.216;6.874;2023-04-20T03:10:31;101687.31;;;6.62;100.00
51229;BME280;37304;52.216;6.874;2023-04-20T03:15:32;101699.44;;;6.64;100.00
51229;BME280;37304;52.216;6.874;2023-04-20T03:20:32;101689.94;;;6.63;100.00
51229;BME280;37304;52.216;6.874;2023-04-20T03:25:33;101683.84;;;6.60;100.00
51229;BME280;37304;52.216;6.874;2023-04-20T03:30:33;101684.78;;;6.63;100.00
51229;BME280;37304;52.216;6.874;2023-04-20T03:35:33;101676.97;;;6.59;100.00
51229;BME280;37304;52.216;6.874;2023-04-20T03:40:34;101673.47;;;6.56;100.00
51229;BME280;37304;52.216;6.874;2023-04-20T03:45:37;101664.84;;;6.53;100.00
51229;BME280;37304;52.216;6.874;2023-04-20T03:50:38;101669.94;;;6.48;100.00
51229;BME280;37304;52.216;6.874;2023-04-20T03:55:38;101657.84;;;6.44;100.00
51229;BME280;37304;52.216;6.874;2023-04-20T04:00:41;101661.25;;;6.43;100.00
51229;BME280;37304;52.216;6.874;2023-04-20T04:05:41;101661.22;;;6.38;100.00
51229;BME280;37304;52.216;6.874;2023-04-20T04:10:42;101658.59;;;6.35;100.00
51229;BME280;37304;52.216;6.874;2023-04-20T04:15:43;101658.59;;;6.37;100.00
51229;BME280;37304;52.216;6.874;2023-04-20T04:20:49;101650.88;;;6.38;100.00
51229;BME280;37304;52.216;6.874;2023-04-20T04:25:49;101642.25;;;6.38;100.00
51229;BME280;37304;52.216;6.874;2023-04-20T04:30:50;101643.94;;;6.36;100.00
51229;BME280;37304;52.216;6.874;2023-04-20T04:35:52;101628.41;;;6.31;100.00
51229;BME280;37304;52.216;6.874;2023-04-20T04:40:52;101639.59;;;6.30;100.00
51229;BME280;37304;52.216;6.874;2023-04-20T04:45:53;101641.22;;;6.23;100.00
51229;BME280;37304;52.216;6.874;2023-04-20T04:50:54;101637.81;;;6.29;100.00
51229;BME280;37304;52.216;6.874;2023-04-20T04:55:55;101641.22;;;6.25;100.00
51229;BME280;37304;52.216;6.874;2023-04-20T05:00:55;101628.38;;;6.30;100.00
51229;BME280;37304;52.216;6.874;2023-04-20T05:05:58;101638.66;;;6.28;100.00
51229;BME280;37304;52.216;6.874;2023-04-20T05:10:58;101644.72;;;6.29;100.00
51229;BME280;37304;52.216;6.874;2023-04-20T05:15:59;101637.91;;;6.34;100.00
51229;BME280;37304;52.216;6.874;2023-04-20T05:21:00;101639.63;;;6.35;100.00
51229;BME280;37304;52.216;6.874;2023-04-20T05:26:00;101645.81;;;6.45;100.00
51229;BME280;37304;52.216;6.874;2023-04-20T05:31:01;101649.16;;;6.37;100.00
51229;BME280;37304;52.216;6.874;2023-04-20T05:36:07;101657.75;;;6.38;100.00
51229;BME280;37304;52.216;6.874;2023-04-20T05:41:23;101656.81;;;6.31;100.00
51229;BME280;37304;52.216;6.874;2023-04-20T05:46:26;101654.31;;;6.39;100.00
51229;BME280;37304;52.216;6.874;2023-04-20T05:51:28;101659.63;;;6.50;100.00
51229;BME280;37304;52.216;6.874;2023-04-20T05:56:32;101651.91;;;6.51;100.00
51229;BME280;37304;52.216;6.874;2023-04-20T06:01:35;101646.66;;;6.44;100.00
51229;BME280;37304;52.216;6.874;2023-04-20T06:06:36;101663.84;;;6.41;100.00
51229;BME280;37304;52.216;6.874;2023-04-20T06:11:37;101663.84;;;6.41;100.00
51229;BME280;37304;52.216;6.874;2023-04-20T06:16:37;101660.66;;;6.61;100.00
51229;BME280;37304;52.216;6.874;2023-04-20T06:21:37;101655.53;;;6.64;100.00
51229;BME280;37304;52.216;6.874;2023-04-20T06:26:38;101654.94;;;6.87;100.00
51229;BME280;37304;52.216;6.874;2023-04-20T06:31:38;101660.84;;;6.77;100.00
51229;BME280;37304;52.216;6.874;2023-04-20T06:36:42;101658.31;;;6.83;100.00
51229;BME280;37304;52.216;6.874;2023-04-20T06:41:43;101647.94;;;6.78;100.00
51229;BME280;37304;52.216;6.874;2023-04-20T06:46:43;101649.78;;;6.90;100.00
51229;BME280;37304;52.216;6.874;2023-04-20T06:51:44;101650.59;;;6.86;100.00
51229;BME280;37304;52.216;6.874;2023-04-20T06:56:44;101650.44;;;6.70;100.00
51229;BME280;37304;52.216;6.874;2023-04-20T07:01:45;101651.28;;;6.69;100.00
51229;BME280;37304;52.216;6.874;2023-04-20T07:06:45;101655.66;;;6.75;100.00
51229;BME280;37304;52.216;6.874;2023-04-20T07:11:48;101648.72;;;6.73;100.00
51229;BME280;37304;52.216;6.874;2023-04-20T07:16:52;101650.50;;;6.75;100.00
51229;BME280;37304;52.216;6.874;2023-04-20T07:21:52;101652.94;;;6.63;100.00
51229;BME280;37304;52.216;6.874;2023-04-20T07:26:53;101637.59;;;6.77;100.00
51229;BME280;37304;52.216;6.874;2023-04-20T07:31:54;101647.06;;;6.76;100.00
51229;BME280;37304;52.216;6.874;2023-04-20T07:36:55;101635.22;;;6.97;100.00
51229;BME280;37304;52.216;6.874;2023-04-20T07:41:55;101625.66;;;6.88;100.00
51229;BME280;37304;52.216;6.874;2023-04-20T07:46:56;101633.69;;;7.14;100.00
51229;BME280;37304;52.216;6.874;2023-04-20T07:51:59;101645.47;;;6.89;100.00
51229;BME280;37304;52.216;6.874;2023-04-20T07:57:00;101657.53;;;6.90;100.00
51229;BME280;37304;52.216;6.874;2023-04-20T08:02:02;101655.13;;;7.04;100.00
51229;BME280;37304;52.216;6.874;2023-04-20T08:07:05;101638.72;;;7.01;100.00
51229;BME280;37304;52.216;6.874;2023-04-20T08:12:05;101635.50;;;7.23;100.00
51229;BME280;37304;52.216;6.874;2023-04-20T08:17:06;101632.28;;;7.46;100.00
51229;BME280;37304;52.216;6.874;2023-04-20T08:22:07;101625.59;;;7.70;100.00
51229;BME280;37304;52.216;6.874;2023-04-20T08:27:07;101626.56;;;7.86;100.00
51229;BME280;37304;52.216;6.874;2023-04-20T08:32:08;101620.75;;;8.26;100.00
51229;BME280;37304;52.216;6.874;2023-04-20T08:37:08;101612.16;;;8.25;100.00
51229;BME280;37304;52.216;6.874;2023-04-20T08:42:09;101618.94;;;8.09;100.00
51229;BME280;37304;52.216;6.874;2023-04-20T08:47:13;101624.97;;;8.04;100.00
51229;BME280;37304;52.216;6.874;2023-04-20T08:52:13;101621.47;;;7.97;100.00
51229;BME280;37304;52.216;6.874;2023-04-20T08:57:14;101622.75;;;8.69;100.00
51229;BME280;37304;52.216;6.874;2023-04-20T09:02:14;101627.81;;;8.50;100.00
51229;BME280;37304;52.216;6.874;2023-04-20T09:07:19;101636.25;;;8.15;100.00
51229;BME280;37304;52.216;6.874;2023-04-20T09:12:20;101631.16;;;8.29;100.00
51229;BME280;37304;52.216;6.874;2023-04-20T09:17:34;101620.84;;;8.38;100.00
51229;BME280;37304;52.216;6.874;2023-04-20T09:22:36;101630.31;;;8.35;100.00
51229;BME280;37304;52.216;6.874;2023-04-20T09:27:36;101621.81;;;8.57;100.00
51229;BME280;37304;52.216;6.874;2023-04-20T09:32:37;101610.53;;;8.48;100.00
51229;BME280;37304;52.216;6.874;2023-04-20T09:37:45;101603.00;;;9.38;100.00
51229;BME280;37304;52.216;6.874;2023-04-20T09:42:52;101601.69;;;11.10;100.00
51229;BME280;37304;52.216;6.874;2023-04-20T09:47:53;101600.28;;;10.46;100.00
51229;BME280;37304;52.216;6.874;2023-04-20T09:52:55;101587.31;;;10.23;100.00
51229;BME280;37304;52.216;6.874;2023-04-20T09:58:02;101584.84;;;9.75;100.00
51229;BME280;37304;52.216;6.874;2023-04-20T10:03:14;101595.22;;;9.61;100.00
51229;BME280;37304;52.216;6.874;2023-04-20T10:08:19;101583.94;;;8.95;100.00
51229;BME280;37304;52.216;6.874;2023-04-20T10:13:34;101595.09;;;8.69;100.00
51229;BME280;37304;52.216;6.874;2023-04-20T10:18:34;101580.53;;;9.37;100.00
51229;BME280;37304;52.216;6.874;2023-04-20T10:23:46;101571.88;;;9.47;100.00
51229;BME280;37304;52.216;6.874;2023-04-20T10:28:48;101576.22;;;9.46;100.00
51229;BME280;37304;52.216;6.874;2023-04-20T10:34:09;101578.78;;;9.26;100.00
51229;BME280;37304;52.216;6.874;2023-04-20T10:39:17;101575.25;;;10.05;100.00
51229;BME280;37304;52.216;6.874;2023-04-20T10:44:22;101559.28;;;11.93;100.00
51229;BME280;37304;52.216;6.874;2023-04-20T10:49:26;101551.44;;;11.04;100.00
51229;BME280;37304;52.216;6.874;2023-04-20T10:54:35;101559.56;;;10.44;100.00
51229;BME280;37304;52.216;6.874;2023-04-20T10:59:36;101571.81;;;10.01;100.00
51229;BME280;37304;52.216;6.874;2023-04-20T11:10:06;101545.88;;;9.81;100.00
51229;BME280;37304;52.216;6.874;2023-04-20T11:15:18;101538.56;;;10.81;100.00
51229;BME280;37304;52.216;6.874;2023-04-20T11:20:29;101546.75;;;9.77;100.00
51229;BME280;37304;52.216;6.874;2023-04-20T11:25:31;101545.03;;;9.73;100.00
51229;BME280;37304;52.216;6.874;2023-04-20T11:30:39;101532.91;;;9.81;100.00
51229;BME280;37304;52.216;6.874;2023-04-20T11:35:41;101531.22;;;9.37;100.00
51229;BME280;37304;52.216;6.874;2023-04-20T11:40:46;101538.16;;;9.41;100.00
51229;BME280;37304;52.216;6.874;2023-04-20T11:45:56;101536.41;;;9.51;100.00
51229;BME280;37304;52.216;6.874;2023-04-20T11:50:57;101540.72;;;9.66;100.00
51229;BME280;37304;52.216;6.874;2023-04-20T11:55:58;101545.06;;;9.56;100.00
51229;BME280;37304;52.216;6.874;2023-04-20T12:00:58;101541.59;;;9.57;100.00
51229;BME280;37304;52.216;6.874;2023-04-20T12:06:01;101545.03;;;9.76;100.00
51229;BME280;37304;52.216;6.874;2023-04-20T12:11:02;101541.50;;;10.03;100.00
51229;BME280;37304;52.216;6.874;2023-04-20T12:16:02;101541.53;;;9.85;100.00
51229;BME280;37304;52.216;6.874;2023-04-20T12:21:03;101533.75;;;9.97;100.00
51229;BME280;37304;52.216;6.874;2023-04-20T12:26:04;101535.44;;;10.03;100.00
51229;BME280;37304;52.216;6.874;2023-04-20T12:31:05;101531.97;;;10.01;100.00
51229;BME280;37304;52.216;6.874;2023-04-20T12:36:07;101538.09;;;9.87;100.00
51229;BME280;37304;52.216;6.874;2023-04-20T12:41:34;101548.47;;;9.86;100.00
51229;BME280;37304;52.216;6.874;2023-04-20T12:46:47;101545.03;;;9.82;100.00
51229;BME280;37304;52.216;6.874;2023-04-20T12:51:47;101525.91;;;10.08;100.00
51229;BME280;37304;52.216;6.874;2023-04-20T12:56:48;101527.97;;;12.00;100.00
51229;BME280;37304;52.216;6.874;2023-04-20T13:01:50;101505.22;;;13.35;100.00
51229;BME280;37304;52.216;6.874;2023-04-20T13:06:51;101493.88;;;14.27;93.67
51229;BME280;37304;52.216;6.874;2023-04-20T13:11:52;101501.03;;;14.17;84.37
51229;BME280;37304;52.216;6.874;2023-04-20T13:16:52;101506.38;;;14.53;82.71
51229;BME280;37304;52.216;6.874;2023-04-20T13:21:56;101486.91;;;14.27;79.01
51229;BME280;37304;52.216;6.874;2023-04-20T13:26:59;101488.00;;;14.55;78.54
51229;BME280;37304;52.216;6.874;2023-04-20T13:32:00;101480.47;;;14.80;74.09
51229;BME280;37304;52.216;6.874;2023-04-20T13:37:08;101481.59;;;13.43;75.23
51229;BME280;37304;52.216;6.874;2023-04-20T13:42:08;101483.06;;;13.07;77.70
51229;BME280;37304;52.216;6.874;2023-04-20T13:47:11;101480.50;;;14.00;78.16
51229;BME280;37304;52.216;6.874;2023-04-20T13:52:12;101475.94;;;13.16;81.02
51229;BME280;37304;52.216;6.874;2023-04-20T13:57:12;101461.63;;;12.87;81.96
51229;BME280;37304;52.216;6.874;2023-04-20T14:02:13;101458.19;;;12.27;82.99
51229;BME280;37304;52.216;6.874;2023-04-20T14:07:13;101450.50;;;13.76;80.15
51229;BME280;37304;52.216;6.874;2023-04-20T14:12:14;101438.28;;;14.56;77.58
51229;BME280;37304;52.216;6.874;2023-04-20T14:17:14;101442.97;;;14.03;74.02
51229;BME280;37304;52.216;6.874;2023-04-20T14:22:17;101444.41;;;13.75;74.05
51229;BME280;37304;52.216;6.874;2023-04-20T14:27:17;101438.38;;;14.52;72.14
51229;BME280;37304;52.216;6.874;2023-04-20T14:32:18;101446.59;;;13.03;73.20
51229;BME280;37304;52.216;6.874;2023-04-20T14:37:19;101448.97;;;13.15;73.56
51229;BME280;37304;52.216;6.874;2023-04-20T14:42:21;101435.44;;;13.42;74.27
51229;BME280;37304;52.216;6.874;2023-04-20T14:47:29;101437.75;;;14.03;74.66
51229;BME280;37304;52.216;6.874;2023-04-20T14:52:32;101427.03;;;13.27;75.81
51229;BME280;37304;52.216;6.874;2023-04-20T14:57:34;101433.59;;;12.46;79.53
51229;BME280;37304;52.216;6.874;2023-04-20T15:02:34;101424.31;;;12.25;79.79
51229;BME280;37304;52.216;6.874;2023-04-20T15:07:37;101425.50;;;12.63;79.91
51229;BME280;37304;52.216;6.874;2023-04-20T15:12:38;101410.16;;;12.96;77.90
51229;BME280;37304;52.216;6.874;2023-04-20T15:17:38;101415.16;;;12.57;78.67
51229;BME280;37304;52.216;6.874;2023-04-20T15:22:39;101420.06;;;12.19;79.20
51229;BME280;37304;52.216;6.874;2023-04-20T15:27:40;101415.81;;;12.12;78.73
51229;BME280;37304;52.216;6.874;2023-04-20T15:32:40;101419.66;;;11.82;79.00
51229;BME280;37304;52.216;6.874;2023-04-20T15:37:41;101408.22;;;11.93;78.98
51229;BME280;37304;52.216;6.874;2023-04-20T15:42:41;101403.66;;;12.13;78.92
51229;BME280;37304;52.216;6.874;2023-04-20T15:47:42;101412.13;;;11.60;77.45
51229;BME280;37304;52.216;6.874;2023-04-20T15:52:42;101411.41;;;11.44;77.85
51229;BME280;37304;52.216;6.874;2023-04-20T15:57:49;101403.91;;;11.16;76.99
51229;BME280;37304;52.216;6.874;2023-04-20T16:03:09;101401.06;;;11.39;74.99
51229;BME280;37304;52.216;6.874;2023-04-20T16:08:10;101388.72;;;11.55;74.82
51229;BME280;37304;52.216;6.874;2023-04-20T16:13:13;101374.09;;;11.45;75.45
51229;BME280;37304;52.216;6.874;2023-04-20T16:18:13;101382.00;;;11.35;77.37
51229;BME280;37304;52.216;6.874;2023-04-20T16:23:14;101380.06;;;11.53;76.74
51229;BME280;37304;52.216;6.874;2023-04-20T16:28:14;101365.13;;;11.69;76.35
51229;BME280;37304;52.216;6.874;2023-04-20T16:33:15;101384.13;;;11.79;76.35
51229;BME280;37304;52.216;6.874;2023-04-20T16:38:16;101375.72;;;11.55;77.00
51229;BME280;37304;52.216;6.874;2023-04-20T16:43:17;101377.34;;;11.65;77.10
51229;BME280;37304;52.216;6.874;2023-04-20T16:48:18;101373.91;;;11.63;78.00
51229;BME280;37304;52.216;6.874;2023-04-20T16:53:20;101376.78;;;11.40;79.11
51229;BME280;37304;52.216;6.874;2023-04-20T16:58:21;101380.28;;;11.34;80.50
51229;BME280;37304;52.216;6.874;2023-04-20T17:03:27;101381.34;;;11.18;83.34
51229;BME280;37304;52.216;6.874;2023-04-20T17:08:29;101390.94;;;11.13;85.74
51229;BME280;37304;52.216;6.874;2023-04-20T17:13:29;101393.81;;;10.83;87.82
51229;BME280;37304;52.216;6.874;2023-04-20T17:18:35;101396.47;;;10.77;92.73
51229;BME280;37304;52.216;6.874;2023-04-20T17:23:38;101413.84;;;10.72;98.77
51229;BME280;37304;52.216;6.874;2023-04-20T17:28:51;101407.00;;;10.61;100.00
51229;BME280;37304;52.216;6.874;2023-04-20T17:33:55;101432.22;;;10.45;100.00
51229;BME280;37304;52.216;6.874;2023-04-20T17:39:14;101434.91;;;10.25;100.00
51229;BME280;37304;52.216;6.874;2023-04-20T17:44:34;101440.97;;;10.24;100.00
51229;BME280;37304;52.216;6.874;2023-04-20T17:50:09;101448.03;;;9.99;100.00
51229;BME280;37304;52.216;6.874;2023-04-20T17:55:38;101455.84;;;9.93;100.00
51229;BME280;37304;52.216;6.874;2023-04-20T18:00:59;101461.94;;;9.77;100.00
51229;BME280;37304;52.216;6.874;2023-04-20T18:06:15;101463.72;;;9.58;100.00
51229;BME280;37304;52.216;6.874;2023-04-20T18:11:21;101491.44;;;9.38;100.00
51229;BME280;37304;52.216;6.874;2023-04-20T18:16:38;101480.22;;;9.18;100.00
51229;BME280;37304;52.216;6.874;2023-04-20T18:22:09;101486.28;;;9.16;100.00
51229;BME280;37304;52.216;6.874;2023-04-20T18:27:11;101507.03;;;9.03;100.00
51229;BME280;37304;52.216;6.874;2023-04-20T18:32:18;101497.53;;;9.01;100.00
51229;BME280;37304;52.216;6.874;2023-04-20T18:37:24;101510.44;;;8.78;100.00
51229;BME280;37304;52.216;6.874;2023-04-20T18:42:34;101514.69;;;8.44;100.00
51229;BME280;37304;52.216;6.874;2023-04-20T18:47:42;101518.06;;;8.29;100.00
51229;BME280;37304;52.216;6.874;2023-04-20T18:52:52;101524.06;;;8.13;100.00
51229;BME280;37304;52.216;6.874;2023-04-20T18:58:03;101525.75;;;8.05;100.00
51229;BME280;37304;52.216;6.874;2023-04-20T19:03:06;101519.59;;;7.90;100.00
51229;BME280;37304;52.216;6.874;2023-04-20T19:08:17;101496.31;;;7.89;100.00
51229;BME280;37304;52.216;6.874;2023-04-20T19:13:53;101495.44;;;7.86;100.00
51229;BME280;37304;52.216;6.874;2023-04-20T19:19:03;101504.09;;;7.93;100.00
51229;BME280;37304;52.216;6.874;2023-04-20T19:30:09;101504.09;;;7.92;100.00
51229;BME280;37304;52.216;6.874;2023-04-20T19:35:32;101500.63;;;7.86;100.00
51229;BME280;37304;52.216;6.874;2023-04-20T19:40:55;101494.63;;;7.94;100.00
51229;BME280;37304;52.216;6.874;2023-04-20T19:46:00;101483.34;;;7.87;100.00
51229;BME280;37304;52.216;6.874;2023-04-20T19:51:16;101481.66;;;7.91;100.00
51229;BME280;37304;52.216;6.874;2023-04-20T19:56:18;101469.56;;;7.91;100.00
51229;BME280;37304;52.216;6.874;2023-04-20T20:01:19;101477.34;;;7.86;100.00
51229;BME280;37304;52.216;6.874;2023-04-20T20:06:20;101471.28;;;7.81;100.00
51229;BME280;37304;52.216;6.874;2023-04-20T20:11:24;101468.69;;;7.84;100.00
51229;BME280;37304;52.216;6.874;2023-04-20T20:16:24;101473.88;;;7.84;100.00
51229;BME280;37304;52.216;6.874;2023-04-20T20:21:35;101474.72;;;7.85;100.00
51229;BME280;37304;52.216;6.874;2023-04-20T20:26:44;101463.53;;;7.84;100.00
51229;BME280;37304;52.216;6.874;2023-04-20T20:31:51;101473.91;;;7.91;100.00
51229;BME280;37304;52.216;6.874;2023-04-20T20:36:51;101466.97;;;7.88;100.00
51229;BME280;37304;52.216;6.874;2023-04-20T20:41:52;101465.25;;;7.85;100.00
51229;BME280;37304;52.216;6.874;2023-04-20T20:46:55;101458.34;;;7.89;100.00
51229;BME280;37304;52.216;6.874;2023-04-20T20:51:56;101460.06;;;7.87;100.00
51229;BME280;37304;52.216;6.874;2023-04-20T20:56:56;101457.50;;;7.89;100.00
51229;BME280;37304;52.216;6.874;2023-04-20T21:01:57;101446.28;;;7.90;100.00
51229;BME280;37304;52.216;6.874;2023-04-20T21:06:57;101438.53;;;7.90;100.00
51229;BME280;37304;52.216;6.874;2023-04-20T21:11:57;101434.22;;;7.92;100.00
51229;BME280;37304;52.216;6.874;2023-04-20T21:17:01;101433.38;;;7.99;100.00
51229;BME280;37304;52.216;6.874;2023-04-20T21:22:06;101439.44;;;7.99;100.00
51229;BME280;37304;52.216;6.874;2023-04-20T21:27:09;101439.44;;;8.01;100.00
51229;BME280;37304;52.216;6.874;2023-04-20T21:32:10;101429.94;;;7.98;100.00
51229;BME280;37304;52.216;6.874;2023-04-20T21:37:10;101418.72;;;8.01;100.00
51229;BME280;37304;52.216;6.874;2023-04-20T21:42:11;101426.50;;;8.01;100.00
51229;BME280;37304;52.216;6.874;2023-04-20T21:47:11;101426.47;;;7.98;100.00
51229;BME280;37304;52.216;6.874;2023-04-20T21:52:12;101424.75;;;7.94;100.00
51229;BME280;37304;52.216;6.874;2023-04-20T21:57:15;101436.81;;;7.92;100.00
51229;BME280;37304;52.216;6.874;2023-04-20T22:02:16;101426.44;;;7.90;100.00
51229;BME280;37304;52.216;6.874;2023-04-20T22:07:16;101425.56;;;7.83;100.00
51229;BME280;37304;52.216;6.874;2023-04-20T22:12:17;101416.06;;;7.81;100.00
51229;BME280;37304;52.216;6.874;2023-04-20T22:17:20;101413.47;;;7.79;100.00
51229;BME280;37304;52.216;6.874;2023-04-20T22:22:22;101410.88;;;7.84;100.00
51229;BME280;37304;52.216;6.874;2023-04-20T22:27:23;101392.78;;;7.85;100.00
51229;BME280;37304;52.216;6.874;2023-04-20T22:32:23;101388.50;;;7.87;100.00
51229;BME280;37304;52.216;6.874;2023-04-20T22:37:24;101370.38;;;7.94;100.00
51229;BME280;37304;52.216;6.874;2023-04-20T22:42:25;101369.50;;;7.93;100.00
51229;BME280;37304;52.216;6.874;2023-04-20T22:47:28;101349.66;;;7.92;100.00
51229;BME280;37304;52.216;6.874;2023-04-20T22:52:29;101335.00;;;7.93;100.00
51229;BME280;37304;52.216;6.874;2023-04-20T22:57:30;101335.03;;;7.97;100.00
51229;BME280;37304;52.216;6.874;2023-04-20T23:02:30;101332.44;;;7.96;100.00
51229;BME280;37304;52.216;6.874;2023-04-20T23:07:31;101320.34;;;7.98;100.00
51229;BME280;37304;52.216;6.874;2023-04-20T23:12:32;101318.66;;;8.01;100.00
51229;BME280;37304;52.216;6.874;2023-04-20T23:17:32;101304.84;;;8.02;100.00
51229;BME280;37304;52.216;6.874;2023-04-20T23:22:32;101293.59;;;7.94;100.00
51229;BME280;37304;52.216;6.874;2023-04-20T23:27:35;101291.88;;;8.01;100.00
51229;BME280;37304;52.216;6.874;2023-04-20T23:32:36;101287.56;;;8.03;100.00
51229;BME280;37304;52.216;6.874;2023-04-20T23:37:36;101259.97;;;8.04;100.00
51229;BME280;37304;52.216;6.874;2023-04-20T23:42:37;101253.09;;;8.09;100.00
51229;BME280;37304;52.216;6.874;2023-04-20T23:47:40;101239.28;;;8.13;100.00
51229;BME280;37304;52.216;6.874;2023-04-20T23:52:41;101235.81;;;8.15;100.00
51229;BME280;37304;52.216;6.874;2023-04-20T23:57:45;101227.16;;;8.23;100.00
